Time,TemperatureF,DewpointF,PressureIn,WindDirection,WindDirectionDegrees,WindSpeedMPH,WindSpeedGustMPH,Humidity,HourlyPrecipIn,Conditions,Clouds,dailyrainin,SoftwareType,DateUTC
2013-07-21 00:02:00,57.4,50.2,30.10,WNW,293,6.0,8.0,77,0.00,,,0.00,meteohub,2013-07-21 04:02:00,
2013-07-21 00:07:00,57.2,50.4,30.09,WNW,293,5.0,8.0,78,0.00,,,0.00,meteohub,2013-07-21 04:07:00,
2013-07-21 00:12:00,57.2,50.7,30.09,WNW,293,5.0,7.0,79,0.00,,,0.00,meteohub,2013-07-21 04:12:00,
2013-07-21 00:17:00,57.0,50.9,30.09,WNW,293,6.0,6.0,80,0.00,,,0.00,meteohub,2013-07-21 04:17:00,
2013-07-21 00:22:00,56.8,50.7,30.09,WNW,293,6.0,6.0,80,0.00,,,0.00,meteohub,2013-07-21 04:22:00,
2013-07-21 00:27:00,56.7,50.9,30.09,WNW,293,6.0,6.0,81,0.00,,,0.00,meteohub,2013-07-21 04:27:00,
2013-07-21 00:32:00,56.5,51.1,30.09,NW,315,5.0,8.0,82,0.00,,,0.00,meteohub,2013-07-21 04:32:00,
2013-07-21 00:37:00,56.3,50.9,30.09,NW,315,7.0,8.0,82,0.00,,,0.00,meteohub,2013-07-21 04:37:00,
2013-07-21 00:42:00,56.3,51.4,30.09,WNW,293,5.0,8.0,84,0.00,,,0.00,meteohub,2013-07-21 04:42:00,
2013-07-21 00:47:00,56.1,51.4,30.09,WNW,293,5.0,8.0,84,0.00,,,0.00,meteohub,2013-07-21 04:47:00,
2013-07-21 00:52:00,56.1,51.1,30.09,WNW,293,5.0,8.0,83,0.00,,,0.00,meteohub,2013-07-21 04:52:00,
2013-07-21 00:57:00,55.9,50.9,30.09,WNW,293,6.0,8.0,83,0.00,,,0.00,meteohub,2013-07-21 04:57:00,
2013-07-21 01:02:00,55.9,51.3,30.09,WNW,293,5.0,8.0,84,0.00,,,0.00,meteohub,2013-07-21 05:02:00,
2013-07-21 01:07:00,55.9,51.4,30.09,WNW,293,8.0,8.0,85,0.00,,,0.00,meteohub,2013-07-21 05:07:00,
2013-07-21 01:12:00,55.9,51.4,30.08,WNW,293,8.0,8.0,85,0.00,,,0.00,meteohub,2013-07-21 05:12:00,
2013-07-21 01:18:00,55.9,51.4,30.09,NW,315,6.0,8.0,85,0.00,,,0.00,meteohub,2013-07-21 05:18:00,
2013-07-21 01:23:00,55.9,51.3,30.09,West,270,5.0,9.0,84,0.00,,,0.00,meteohub,2013-07-21 05:23:00,
2013-07-21 01:28:00,55.6,50.2,30.09,West,270,6.0,9.0,82,0.00,,,0.00,meteohub,2013-07-21 05:28:00,
2013-07-21 01:33:00,55.6,50.5,30.09,West,270,5.0,9.0,83,0.00,,,0.00,meteohub,2013-07-21 05:33:00,
2013-07-21 01:38:00,55.4,50.4,30.09,West,270,8.0,8.0,83,0.00,,,0.00,meteohub,2013-07-21 05:38:00,
2013-07-21 01:43:00,55.6,50.9,30.09,West,270,6.0,8.0,84,0.00,,,0.00,meteohub,2013-07-21 05:43:00,
2013-07-21 01:48:00,55.2,50.2,30.09,West,270,6.0,8.0,83,0.00,,,0.00,meteohub,2013-07-21 05:48:00,
2013-07-21 01:53:00,55.2,49.8,30.09,West,270,6.0,8.0,82,0.00,,,0.00,meteohub,2013-07-21 05:53:00,
2013-07-21 01:58:00,55.0,49.6,30.08,West,270,5.0,8.0,82,0.00,,,0.00,meteohub,2013-07-21 05:58:00,
2013-07-21 02:03:00,55.2,50.2,30.09,West,270,6.0,7.0,83,0.00,,,0.00,meteohub,2013-07-21 06:03:00,
2013-07-21 02:08:00,55.0,49.6,30.09,West,270,4.0,7.0,82,0.00,,,0.00,meteohub,2013-07-21 06:08:00,
2013-07-21 02:13:00,55.0,49.6,30.08,West,270,6.0,7.0,82,0.00,,,0.00,meteohub,2013-07-21 06:13:00,
2013-07-21 02:18:00,55.0,49.6,30.09,West,270,5.0,7.0,82,0.00,,,0.00,meteohub,2013-07-21 06:18:00,
2013-07-21 02:23:00,55.0,49.6,30.09,West,270,4.0,7.0,82,0.00,,,0.00,meteohub,2013-07-21 06:23:00,
2013-07-21 02:28:00,55.0,49.6,30.09,West,270,4.0,7.0,82,0.00,,,0.00,meteohub,2013-07-21 06:28:00,
2013-07-21 02:33:00,55.0,49.6,30.09,West,270,5.0,5.0,82,0.00,,,0.00,meteohub,2013-07-21 06:33:00,
2013-07-21 02:38:00,55.0,50.0,30.09,West,270,4.0,6.0,83,0.00,,,0.00,meteohub,2013-07-21 06:38:00,
2013-07-21 02:43:00,55.2,50.5,30.09,West,270,4.0,6.0,84,0.00,,,0.00,meteohub,2013-07-21 06:43:00,
2013-07-21 02:48:00,55.2,50.2,30.09,West,270,4.0,6.0,83,0.00,,,0.00,meteohub,2013-07-21 06:48:00,
2013-07-21 02:53:00,55.0,50.0,30.09,West,270,4.0,6.0,83,0.00,,,0.00,meteohub,2013-07-21 06:53:00,
2013-07-21 02:58:00,55.0,50.0,30.08,West,270,5.0,6.0,83,0.00,,,0.00,meteohub,2013-07-21 06:58:00,
2013-07-21 03:03:00,55.0,50.0,30.09,West,270,4.0,6.0,83,0.00,,,0.00,meteohub,2013-07-21 07:03:00,
2013-07-21 03:08:00,55.0,50.0,30.09,West,270,5.0,8.0,83,0.00,,,0.00,meteohub,2013-07-21 07:08:00,
2013-07-21 03:13:00,55.2,50.5,30.08,West,270,5.0,8.0,84,0.00,,,0.00,meteohub,2013-07-21 07:13:00,
2013-07-21 03:18:00,55.2,50.5,30.08,West,270,5.0,8.0,84,0.00,,,0.00,meteohub,2013-07-21 07:18:00,
2013-07-21 03:23:00,55.2,50.5,30.08,West,270,4.0,6.0,84,0.00,,,0.00,meteohub,2013-07-21 07:23:00,
2013-07-21 03:28:00,55.2,50.5,30.09,West,270,5.0,6.0,84,0.00,,,0.00,meteohub,2013-07-21 07:28:00,
2013-07-21 03:33:00,55.2,50.7,30.09,West,270,5.0,6.0,85,0.00,,,0.00,meteohub,2013-07-21 07:33:00,
2013-07-21 03:38:00,55.2,50.7,30.09,West,270,5.0,7.0,85,0.00,,,0.00,meteohub,2013-07-21 07:38:00,
2013-07-21 03:43:00,55.4,51.3,30.08,West,270,4.0,7.0,86,0.00,,,0.00,meteohub,2013-07-21 07:43:00,
2013-07-21 03:48:00,55.2,51.1,30.08,West,270,6.0,7.0,86,0.00,,,0.00,meteohub,2013-07-21 07:48:00,
2013-07-21 03:53:00,54.9,50.4,30.08,West,270,5.0,7.0,85,0.00,,,0.00,meteohub,2013-07-21 07:53:00,
2013-07-21 03:58:00,54.9,50.4,30.08,West,270,4.0,6.0,85,0.00,,,0.00,meteohub,2013-07-21 07:58:00,
2013-07-21 04:03:00,54.7,50.2,30.08,West,270,5.0,6.0,85,0.00,,,0.00,meteohub,2013-07-21 08:03:00,
2013-07-21 04:08:00,54.7,50.2,30.08,West,270,5.0,6.0,85,0.00,,,0.00,meteohub,2013-07-21 08:08:00,
2013-07-21 04:13:00,54.7,50.2,30.07,West,270,6.0,6.0,85,0.00,,,0.00,meteohub,2013-07-21 08:13:00,
2013-07-21 04:18:00,54.5,49.8,30.07,West,270,4.0,7.0,84,0.00,,,0.00,meteohub,2013-07-21 08:18:00,
2013-07-21 04:23:00,54.5,50.0,30.07,West,270,4.0,7.0,85,0.00,,,0.00,meteohub,2013-07-21 08:23:00,
2013-07-21 04:28:00,54.5,50.0,30.07,West,270,4.0,7.0,85,0.00,,,0.00,meteohub,2013-07-21 08:28:00,
2013-07-21 04:33:00,54.3,49.8,30.07,West,270,4.0,6.0,85,0.00,,,0.00,meteohub,2013-07-21 08:33:00,
2013-07-21 04:38:00,54.5,50.0,30.07,West,270,4.0,5.0,85,0.00,,,0.00,meteohub,2013-07-21 08:38:00,
2013-07-21 04:43:00,54.5,50.4,30.07,West,270,4.0,5.0,86,0.00,,,0.00,meteohub,2013-07-21 08:43:00,
2013-07-21 04:48:00,54.5,50.4,30.07,West,270,4.0,5.0,86,0.00,,,0.00,meteohub,2013-07-21 08:48:00,
2013-07-21 04:53:00,54.5,50.0,30.07,West,270,4.0,5.0,85,0.00,,,0.00,meteohub,2013-07-21 08:53:00,
2013-07-21 04:58:00,54.5,50.4,30.07,West,270,5.0,5.0,86,0.00,,,0.00,meteohub,2013-07-21 08:58:00,
2013-07-21 05:03:00,54.7,50.5,30.07,West,270,6.0,6.0,86,0.00,,,0.00,meteohub,2013-07-21 09:03:00,
2013-07-21 05:08:00,54.3,50.2,30.07,West,270,6.0,6.0,86,0.00,,,0.00,meteohub,2013-07-21 09:08:00,
2013-07-21 05:13:00,54.0,49.6,30.06,West,270,4.0,7.0,85,0.00,,,0.00,meteohub,2013-07-21 09:13:00,
2013-07-21 05:18:00,54.0,49.8,30.07,West,270,1.0,7.0,86,0.00,,,0.00,meteohub,2013-07-21 09:18:00,
2013-07-21 05:23:00,54.0,49.8,30.07,West,270,4.0,7.0,86,0.00,,,0.00,meteohub,2013-07-21 09:23:00,
2013-07-21 05:28:00,54.0,50.2,30.07,West,270,3.0,6.0,87,0.00,,,0.00,meteohub,2013-07-21 09:28:00,
2013-07-21 05:33:00,54.0,50.2,30.07,West,270,3.0,5.0,87,0.00,,,0.00,meteohub,2013-07-21 09:33:00,
2013-07-21 05:38:00,54.0,50.2,30.07,West,270,4.0,5.0,87,0.00,,,0.00,meteohub,2013-07-21 09:38:00,
2013-07-21 05:43:00,53.8,50.0,30.07,West,270,3.0,4.0,87,0.00,,,0.00,meteohub,2013-07-21 09:43:00,
2013-07-21 05:48:00,53.6,50.2,30.07,West,270,3.0,4.0,88,0.00,,,0.00,meteohub,2013-07-21 09:48:00,
2013-07-21 05:53:00,53.8,50.4,30.08,West,270,4.0,4.0,88,0.00,,,0.00,meteohub,2013-07-21 09:53:00,
2013-07-21 05:58:00,54.0,50.7,30.08,West,270,4.0,4.0,89,0.00,,,0.00,meteohub,2013-07-21 09:58:00,
2013-07-21 06:03:00,54.0,51.1,30.08,West,270,2.0,4.0,90,0.00,,,0.00,meteohub,2013-07-21 10:03:00,
2013-07-21 06:08:00,53.8,50.9,30.08,West,270,3.0,4.0,90,0.00,,,0.00,meteohub,2013-07-21 10:08:00,
2013-07-21 06:13:00,53.6,50.7,30.08,West,270,3.0,4.0,90,0.00,,,0.00,meteohub,2013-07-21 10:13:00,
2013-07-21 06:18:00,53.2,50.7,30.08,West,270,2.0,4.0,91,0.00,,,0.00,meteohub,2013-07-21 10:18:00,
2013-07-21 06:23:00,53.4,50.9,30.08,West,270,0.0,4.0,91,0.00,,,0.00,meteohub,2013-07-21 10:23:00,
2013-07-21 06:28:00,53.6,50.7,30.08,West,270,2.0,4.0,90,0.00,,,0.00,meteohub,2013-07-21 10:28:00,
2013-07-21 06:33:00,53.8,51.3,30.08,West,270,2.0,4.0,91,0.00,,,0.00,meteohub,2013-07-21 10:33:00,
2013-07-21 06:38:00,54.0,51.4,30.08,West,270,3.0,3.0,91,0.00,,,0.00,meteohub,2013-07-21 10:38:00,
2013-07-21 06:43:00,54.1,51.6,30.08,West,270,4.0,4.0,91,0.00,,,0.00,meteohub,2013-07-21 10:43:00,
2013-07-21 06:48:00,54.3,51.8,30.08,West,270,2.0,4.0,91,0.00,,,0.00,meteohub,2013-07-21 10:48:00,
2013-07-21 06:53:00,54.3,51.8,30.08,West,270,2.0,4.0,91,0.00,,,0.00,meteohub,2013-07-21 10:53:00,
2013-07-21 06:58:00,54.1,51.8,30.08,West,270,0.0,4.0,92,0.00,,,0.00,meteohub,2013-07-21 10:58:00,
2013-07-21 07:04:00,54.1,51.8,30.09,West,270,4.0,4.0,92,0.00,,,0.00,meteohub,2013-07-21 11:04:00,
2013-07-21 07:09:00,54.7,52.3,30.08,West,270,4.0,4.0,92,0.00,,,0.00,meteohub,2013-07-21 11:09:00,
2013-07-21 07:14:00,54.9,52.5,30.09,West,270,2.0,4.0,92,0.00,,,0.00,meteohub,2013-07-21 11:14:00,
2013-07-21 07:19:00,55.0,53.1,30.09,West,270,3.0,4.0,93,0.00,,,0.00,meteohub,2013-07-21 11:19:00,
2013-07-21 07:24:00,55.4,53.4,30.09,West,270,2.0,4.0,93,0.00,,,0.00,meteohub,2013-07-21 11:24:00,
2013-07-21 07:29:00,55.8,53.8,30.09,West,270,4.0,4.0,93,0.00,,,0.00,meteohub,2013-07-21 11:29:00,
2013-07-21 07:34:00,56.1,54.1,30.09,West,270,1.0,4.0,93,0.00,,,0.00,meteohub,2013-07-21 11:34:00,
2013-07-21 07:39:00,56.1,54.5,30.09,West,270,1.0,4.0,94,0.00,,,0.00,meteohub,2013-07-21 11:39:00,
2013-07-21 07:44:00,56.3,54.7,30.09,West,270,1.0,4.0,94,0.00,,,0.00,meteohub,2013-07-21 11:44:00,
2013-07-21 07:49:00,56.7,55.0,30.09,West,270,2.0,4.0,94,0.00,,,0.00,meteohub,2013-07-21 11:49:00,
2013-07-21 07:54:00,57.0,55.2,30.10,West,270,0.0,2.0,94,0.00,,,0.00,meteohub,2013-07-21 11:54:00,
2013-07-21 07:59:00,57.4,55.4,30.09,West,270,2.0,2.0,93,0.00,,,0.00,meteohub,2013-07-21 11:59:00,
2013-07-21 08:04:00,57.4,55.4,30.09,West,270,1.0,2.0,93,0.00,,,0.00,meteohub,2013-07-21 12:04:00,
2013-07-21 08:09:00,57.7,55.4,30.09,West,270,2.0,2.0,92,0.00,,,0.00,meteohub,2013-07-21 12:09:00,
2013-07-21 08:14:00,58.1,55.4,30.09,West,270,0.0,2.0,91,0.00,,,0.00,meteohub,2013-07-21 12:14:00,
2013-07-21 08:19:00,58.3,55.4,30.10,West,270,0.0,2.0,90,0.00,,,0.00,meteohub,2013-07-21 12:19:00,
2013-07-21 08:24:00,58.8,55.2,30.09,West,270,0.0,2.0,88,0.00,,,0.00,meteohub,2013-07-21 12:24:00,
2013-07-21 08:29:00,59.2,55.0,30.10,West,270,2.0,2.0,86,0.00,,,0.00,meteohub,2013-07-21 12:29:00,
2013-07-21 08:34:00,59.4,54.9,30.10,West,270,3.0,3.0,85,0.00,,,0.00,meteohub,2013-07-21 12:34:00,
2013-07-21 08:39:00,59.7,55.2,30.10,West,270,2.0,3.0,85,0.00,,,0.00,meteohub,2013-07-21 12:39:00,
2013-07-21 08:44:00,60.1,55.2,30.09,West,270,4.0,4.0,84,0.00,,,0.00,meteohub,2013-07-21 12:44:00,
2013-07-21 08:49:00,60.6,55.8,30.10,West,270,2.0,3.0,84,0.00,,,0.00,meteohub,2013-07-21 12:49:00,
2013-07-21 08:54:00,61.0,55.4,30.10,NNW,338,2.0,4.0,82,0.00,,,0.00,meteohub,2013-07-21 12:54:00,
2013-07-21 08:59:00,61.2,55.6,30.09,NNW,338,2.0,4.0,82,0.00,,,0.00,meteohub,2013-07-21 12:59:00,
2013-07-21 09:04:00,61.5,55.2,30.10,SE,135,2.0,4.0,80,0.00,,,0.00,meteohub,2013-07-21 13:04:00,
2013-07-21 09:09:00,61.5,55.2,30.10,North,0,2.0,3.0,80,0.00,,,0.00,meteohub,2013-07-21 13:09:00,
2013-07-21 09:14:00,61.7,55.0,30.10,North,0,2.0,3.0,79,0.00,,,0.00,meteohub,2013-07-21 13:14:00,
2013-07-21 09:19:00,62.1,55.0,30.10,SE,135,2.0,3.0,78,0.00,,,0.00,meteohub,2013-07-21 13:19:00,
2013-07-21 09:24:00,62.6,54.9,30.10,South,180,2.0,4.0,76,0.00,,,0.00,meteohub,2013-07-21 13:24:00,
2013-07-21 09:29:00,63.1,55.4,30.11,SW,225,3.0,6.0,76,0.00,,,0.00,meteohub,2013-07-21 13:29:00,
2013-07-21 09:34:00,63.7,55.9,30.10,NE,45,2.0,6.0,76,0.00,,,0.00,meteohub,2013-07-21 13:34:00,
2013-07-21 09:39:00,64.4,56.7,30.11,NE,45,3.0,6.0,76,0.00,,,0.00,meteohub,2013-07-21 13:39:00,
2013-07-21 09:44:00,64.6,56.5,30.11,SE,135,4.0,4.0,75,0.00,,,0.00,meteohub,2013-07-21 13:44:00,
2013-07-21 09:49:00,64.6,56.5,30.11,NE,45,2.0,4.0,75,0.00,,,0.00,meteohub,2013-07-21 13:49:00,
2013-07-21 09:54:00,64.9,56.8,30.11,South,180,4.0,4.0,75,0.00,,,0.00,meteohub,2013-07-21 13:54:00,
2013-07-21 09:59:00,64.6,55.8,30.11,East,90,3.0,4.0,73,0.00,,,0.00,meteohub,2013-07-21 13:59:00,
2013-07-21 10:04:00,64.6,55.0,30.10,South,180,6.0,6.0,71,0.00,,,0.00,meteohub,2013-07-21 14:04:00,
2013-07-21 10:09:00,64.0,54.9,30.11,East,90,2.0,4.0,72,0.00,,,0.00,meteohub,2013-07-21 14:09:00,
2013-07-21 10:14:00,64.2,54.7,30.11,SW,225,4.0,6.0,71,0.00,,,0.00,meteohub,2013-07-21 14:14:00,
2013-07-21 10:19:00,63.9,54.3,30.10,South,180,2.0,6.0,71,0.00,,,0.00,meteohub,2013-07-21 14:19:00,
2013-07-21 10:24:00,63.9,54.3,30.11,SW,225,2.0,6.0,71,0.00,,,0.00,meteohub,2013-07-21 14:24:00,
2013-07-21 10:29:00,64.0,54.5,30.10,West,270,3.0,5.0,71,0.00,,,0.00,meteohub,2013-07-21 14:29:00,
2013-07-21 10:34:00,64.4,54.9,30.10,West,270,2.0,4.0,71,0.00,,,0.00,meteohub,2013-07-21 14:34:00,
2013-07-21 10:39:00,64.4,54.3,30.11,West,270,4.0,4.0,70,0.00,,,0.00,meteohub,2013-07-21 14:39:00,
2013-07-21 10:44:00,64.4,54.0,30.10,SSW,203,2.0,4.0,69,0.00,,,0.00,meteohub,2013-07-21 14:44:00,
2013-07-21 10:49:00,64.6,55.0,30.10,East,90,2.0,4.0,71,0.00,,,0.00,meteohub,2013-07-21 14:49:00,
2013-07-21 16:24:00,70.9,47.3,30.07,East,90,2.0,4.0,43,0.00,,,0.00,meteohub,2013-07-21 20:24:00,
2013-07-21 16:29:00,70.9,46.0,30.07,SW,225,3.0,4.0,41,0.00,,,0.00,meteohub,2013-07-21 20:29:00,
2013-07-21 16:34:00,70.7,44.6,30.07,South,180,2.0,4.0,39,0.00,,,0.00,meteohub,2013-07-21 20:34:00,
2013-07-21 16:39:00,70.9,40.3,30.07,SE,135,3.0,4.0,33,0.00,,,0.00,meteohub,2013-07-21 20:39:00,
2013-07-21 16:44:00,70.9,42.6,30.07,NNW,338,3.0,4.0,36,0.00,,,0.00,meteohub,2013-07-21 20:44:00,
2013-07-21 16:49:00,70.9,51.3,30.06,NW,315,2.0,3.0,50,0.00,,,0.00,meteohub,2013-07-21 20:49:00,
2013-07-21 16:54:00,70.5,54.5,30.06,NW,315,5.0,5.0,57,0.00,,,0.00,meteohub,2013-07-21 20:54:00,
2013-07-21 16:59:00,69.8,53.4,30.06,NW,315,5.0,6.0,56,0.00,,,0.00,meteohub,2013-07-21 20:59:00,
2013-07-21 17:04:00,69.6,56.5,30.06,WNW,293,6.0,7.0,63,0.00,,,0.00,meteohub,2013-07-21 21:04:00,
2013-07-21 17:09:00,70.2,54.1,30.06,NNW,338,6.0,7.0,57,0.00,,,0.00,meteohub,2013-07-21 21:09:00,
2013-07-21 17:14:00,70.7,54.3,30.06,NW,315,3.0,8.0,56,0.00,,,0.00,meteohub,2013-07-21 21:14:00,
2013-07-21 17:19:00,71.1,54.5,30.05,NNW,338,8.0,8.0,56,0.00,,,0.00,meteohub,2013-07-21 21:19:00,
2013-07-21 17:24:00,71.2,54.3,30.05,NE,45,8.0,8.0,55,0.00,,,0.00,meteohub,2013-07-21 21:24:00,
2013-07-21 17:29:00,71.6,54.5,30.05,WNW,293,7.0,8.0,55,0.00,,,0.00,meteohub,2013-07-21 21:29:00,
2013-07-21 17:34:00,71.1,54.1,30.04,NNW,338,7.0,9.0,55,0.00,,,0.00,meteohub,2013-07-21 21:34:00,
2013-07-21 17:39:00,70.9,55.4,30.04,North,0,8.0,9.0,58,0.00,,,0.00,meteohub,2013-07-21 21:39:00,
2013-07-21 17:44:00,71.1,56.5,30.04,NNW,338,5.0,9.0,60,0.00,,,0.00,meteohub,2013-07-21 21:44:00,
2013-07-21 17:49:00,71.6,56.5,30.04,NNW,338,3.0,8.0,59,0.00,,,0.00,meteohub,2013-07-21 21:49:00,
2013-07-21 17:54:00,71.8,56.1,30.04,NNW,338,6.0,8.0,58,0.00,,,0.00,meteohub,2013-07-21 21:54:00,
2013-07-21 17:59:00,71.4,56.3,30.04,NNW,338,3.0,7.0,59,0.00,,,0.00,meteohub,2013-07-21 21:59:00,
2013-07-21 18:05:00,71.4,56.3,30.04,NNW,338,3.0,7.0,59,0.00,,,0.00,meteohub,2013-07-21 22:05:00,
2013-07-21 18:10:00,71.2,57.6,30.03,NW,315,5.0,6.0,62,0.00,,,0.00,meteohub,2013-07-21 22:10:00,
2013-07-21 18:15:00,70.3,57.2,30.04,NW,315,4.0,5.0,63,0.00,,,0.00,meteohub,2013-07-21 22:15:00,
2013-07-21 18:20:00,70.0,56.8,30.04,NNW,338,6.0,9.0,63,0.00,,,0.00,meteohub,2013-07-21 22:20:00,
2013-07-21 18:25:00,69.8,56.7,30.04,NW,315,6.0,9.0,63,0.00,,,0.00,meteohub,2013-07-21 22:25:00,
2013-07-21 18:30:00,68.9,57.9,30.04,North,0,8.0,9.0,68,0.00,,,0.00,meteohub,2013-07-21 22:30:00,
2013-07-21 18:35:00,68.7,57.4,30.04,WNW,293,5.0,9.0,67,0.00,,,0.00,meteohub,2013-07-21 22:35:00,
2013-07-21 18:40:00,68.7,57.4,30.04,East,90,3.0,9.0,67,0.00,,,0.00,meteohub,2013-07-21 22:40:00,
2013-07-21 18:45:00,68.7,57.4,30.03,NE,45,2.0,9.0,67,0.00,,,0.00,meteohub,2013-07-21 22:45:00,
2013-07-21 18:50:00,68.7,57.4,30.03,NNW,338,3.0,8.0,67,0.00,,,0.00,meteohub,2013-07-21 22:50:00,
2013-07-21 18:55:00,68.4,57.7,30.03,NW,315,2.0,5.0,69,0.00,,,0.00,meteohub,2013-07-21 22:55:00,
2013-07-21 19:00:00,68.2,57.6,30.04,NW,315,5.0,6.0,69,0.00,,,0.00,meteohub,2013-07-21 23:00:00,
2013-07-21 19:05:00,68.0,57.4,30.03,NW,315,5.0,6.0,69,0.00,,,0.00,meteohub,2013-07-21 23:05:00,
2013-07-21 19:10:00,67.8,57.7,30.03,West,270,7.0,7.0,70,0.00,,,0.00,meteohub,2013-07-21 23:10:00,
2013-07-21 19:15:00,67.8,57.7,30.03,NNW,338,4.0,7.0,70,0.00,,,0.00,meteohub,2013-07-21 23:15:00,
2013-07-21 19:20:00,68.0,57.4,30.03,South,180,4.0,7.0,69,0.00,,,0.00,meteohub,2013-07-21 23:20:00,
2013-07-21 19:25:00,68.0,57.0,30.03,South,180,4.0,7.0,68,0.00,,,0.00,meteohub,2013-07-21 23:25:00,
2013-07-21 19:30:00,68.0,56.7,30.03,South,180,5.0,6.0,67,0.00,,,0.00,meteohub,2013-07-21 23:30:00,
2013-07-21 19:35:00,68.4,57.0,30.03,NW,315,5.0,8.0,67,0.00,,,0.00,meteohub,2013-07-21 23:35:00,
2013-07-21 19:40:00,68.5,56.7,30.03,North,0,2.0,8.0,66,0.00,,,0.00,meteohub,2013-07-21 23:40:00,
2013-07-21 19:45:00,68.7,56.8,30.03,SE,135,3.0,8.0,66,0.00,,,0.00,meteohub,2013-07-21 23:45:00,
2013-07-21 19:50:00,69.1,56.5,30.03,SE,135,2.0,5.0,64,0.00,,,0.00,meteohub,2013-07-21 23:50:00,
2013-07-21 19:55:00,68.9,56.3,30.03,North,0,4.0,4.0,64,0.00,,,0.00,meteohub,2013-07-21 23:55:00,
2013-07-21 20:00:00,68.7,55.6,30.04,North,0,1.0,4.0,63,0.00,,,0.00,meteohub,2013-07-22 00:00:00,
2013-07-21 20:05:00,68.9,55.8,30.04,North,0,1.0,4.0,63,0.00,,,0.00,meteohub,2013-07-22 00:05:00,
2013-07-21 20:10:00,68.9,55.8,30.03,North,0,2.0,4.0,63,0.00,,,0.00,meteohub,2013-07-22 00:10:00,
2013-07-21 20:15:00,68.9,55.8,30.03,NW,315,3.0,3.0,63,0.00,,,0.00,meteohub,2013-07-22 00:15:00,
2013-07-21 20:20:00,68.5,55.4,30.03,East,90,1.0,3.0,63,0.00,,,0.00,meteohub,2013-07-22 00:20:00,
2013-07-21 20:25:00,68.4,55.2,30.03,East,90,0.0,3.0,63,0.00,,,0.00,meteohub,2013-07-22 00:25:00,
2013-07-21 20:30:00,68.2,55.0,30.04,East,90,1.0,3.0,63,0.00,,,0.00,meteohub,2013-07-22 00:30:00,
2013-07-21 20:35:00,68.0,55.4,30.04,North,0,2.0,2.0,64,0.00,,,0.00,meteohub,2013-07-22 00:35:00,
2013-07-21 20:40:00,67.8,55.6,30.04,North,0,0.0,2.0,65,0.00,,,0.00,meteohub,2013-07-22 00:40:00,
2013-07-21 20:45:00,67.6,55.4,30.04,North,0,0.0,2.0,65,0.00,,,0.00,meteohub,2013-07-22 00:45:00,
2013-07-21 20:50:00,67.6,55.9,30.04,NNW,338,0.0,3.0,66,0.00,,,0.00,meteohub,2013-07-22 00:50:00,
2013-07-21 20:55:00,67.5,55.8,30.03,NNW,338,0.0,3.0,66,0.00,,,0.00,meteohub,2013-07-22 00:55:00,
2013-07-21 21:00:00,67.5,56.1,30.03,NNW,338,0.0,3.0,67,0.00,,,0.00,meteohub,2013-07-22 01:00:00,
2013-07-21 21:05:00,67.5,56.1,30.03,NNW,338,1.0,2.0,67,0.00,,,0.00,meteohub,2013-07-22 01:05:00,
2013-07-21 21:10:00,67.3,56.3,30.03,North,0,4.0,4.0,68,0.00,,,0.00,meteohub,2013-07-22 01:10:00,
2013-07-21 21:15:00,67.3,56.3,30.03,NE,45,1.0,4.0,68,0.00,,,0.00,meteohub,2013-07-22 01:15:00,
2013-07-21 21:20:00,67.1,56.1,30.03,NE,45,0.0,4.0,68,0.00,,,0.00,meteohub,2013-07-22 01:20:00,
2013-07-21 21:25:00,67.1,56.1,30.03,NE,45,0.0,4.0,68,0.00,,,0.00,meteohub,2013-07-22 01:25:00,
2013-07-21 21:30:00,66.9,56.5,30.03,NE,45,2.0,3.0,69,0.00,,,0.00,meteohub,2013-07-22 01:30:00,
2013-07-21 21:35:00,66.9,56.5,30.03,NW,315,0.0,2.0,69,0.00,,,0.00,meteohub,2013-07-22 01:35:00,
2013-07-21 21:40:00,66.7,56.3,30.02,North,0,0.0,2.0,69,0.00,,,0.00,meteohub,2013-07-22 01:40:00,
2013-07-21 21:45:00,66.7,56.7,30.02,North,0,4.0,4.0,70,0.00,,,0.00,meteohub,2013-07-22 01:45:00,
2013-07-21 21:50:00,66.7,56.7,30.02,North,0,0.0,4.0,70,0.00,,,0.00,meteohub,2013-07-22 01:50:00,
2013-07-21 21:56:00,66.6,56.5,30.03,NE,45,0.0,4.0,70,0.00,,,0.00,meteohub,2013-07-22 01:56:00,
2013-07-21 22:01:00,66.6,57.2,30.03,SE,135,1.0,4.0,72,0.00,,,0.00,meteohub,2013-07-22 02:01:00,
2013-07-21 22:06:00,66.6,56.8,30.03,NE,45,1.0,3.0,71,0.00,,,0.00,meteohub,2013-07-22 02:06:00,
2013-07-21 22:11:00,66.6,56.8,30.03,South,180,1.0,3.0,71,0.00,,,0.00,meteohub,2013-07-22 02:11:00,
2013-07-21 22:16:00,66.4,56.7,30.03,North,0,4.0,4.0,71,0.00,,,0.00,meteohub,2013-07-22 02:16:00,
2013-07-21 22:21:00,66.4,56.7,30.03,North,0,4.0,4.0,71,0.00,,,0.00,meteohub,2013-07-22 02:21:00,
2013-07-21 22:26:00,66.6,56.8,30.03,NW,315,2.0,4.0,71,0.00,,,0.00,meteohub,2013-07-22 02:26:00,
2013-07-21 22:31:00,66.6,57.2,30.03,NE,45,0.0,4.0,72,0.00,,,0.00,meteohub,2013-07-22 02:31:00,
2013-07-21 22:36:00,66.7,57.4,30.03,South,180,0.0,4.0,72,0.00,,,0.00,meteohub,2013-07-22 02:36:00,
2013-07-21 22:41:00,66.7,57.4,30.03,NE,45,0.0,3.0,72,0.00,,,0.00,meteohub,2013-07-22 02:41:00,
2013-07-21 22:46:00,66.6,57.2,30.02,SSE,158,0.0,2.0,72,0.00,,,0.00,meteohub,2013-07-22 02:46:00,
2013-07-21 22:51:00,66.4,57.4,30.02,NE,45,1.0,2.0,73,0.00,,,0.00,meteohub,2013-07-22 02:51:00,
2013-07-21 22:56:00,66.4,57.9,30.01,SE,135,1.0,2.0,74,0.00,,,0.00,meteohub,2013-07-22 02:56:00,
2013-07-21 23:02:00,66.2,57.7,30.01,East,90,2.0,2.0,74,0.00,,,0.00,meteohub,2013-07-22 03:02:00,
2013-07-21 23:07:00,66.2,58.1,30.01,North,0,1.0,3.0,75,0.00,,,0.00,meteohub,2013-07-22 03:07:00,
2013-07-21 23:12:00,66.4,58.3,30.01,NNE,23,2.0,3.0,75,0.00,,,0.00,meteohub,2013-07-22 03:12:00,
2013-07-21 23:17:00,66.4,58.3,30.02,North,0,1.0,3.0,75,0.00,,,0.00,meteohub,2013-07-22 03:17:00,
2013-07-21 23:22:00,66.6,58.5,30.01,North,0,0.0,2.0,75,0.00,,,0.00,meteohub,2013-07-22 03:22:00,
2013-07-21 23:27:00,66.6,58.5,30.01,NW,315,2.0,2.0,75,0.00,,,0.00,meteohub,2013-07-22 03:27:00,
2013-07-21 23:32:00,66.6,58.8,30.01,NW,315,2.0,2.0,76,0.00,,,0.00,meteohub,2013-07-22 03:32:00,
2013-07-21 23:37:00,66.6,58.8,30.01,NW,315,2.0,2.0,76,0.00,,,0.00,meteohub,2013-07-22 03:37:00,
2013-07-21 23:42:00,66.7,59.0,30.00,NW,315,3.0,3.0,76,0.00,,,0.00,meteohub,2013-07-22 03:42:00,
2013-07-21 23:47:00,66.9,59.5,30.00,NW,315,1.0,3.0,77,0.00,,,0.00,meteohub,2013-07-22 03:47:00,
2013-07-21 23:52:00,67.1,59.7,30.00,NW,315,2.0,4.0,77,0.00,,,0.00,meteohub,2013-07-22 03:52:00,
2013-07-21 23:57:00,67.3,59.9,30.00,NE,45,2.0,4.0,77,0.00,,,0.00,meteohub,2013-07-22 03:57:00,